createdAt,value
2023-04-28T00:02:02.140Z,3.70
2023-04-28T00:04:30.231Z,3.70
2023-04-28T00:06:58.264Z,3.60
2023-04-28T00:09:26.150Z,3.60
2023-04-28T00:11:54.041Z,3.60
2023-04-28T00:14:23.355Z,3.60
2023-04-28T00:16:51.295Z,3.60
2023-04-28T00:19:19.278Z,3.50
2023-04-28T00:21:47.207Z,3.50
2023-04-28T00:24:15.395Z,3.50
2023-04-28T00:26:43.371Z,3.50
2023-04-28T00:29:11.212Z,3.50
2023-04-28T00:31:40.460Z,3.40
2023-04-28T00:34:08.328Z,3.40
2023-04-28T00:36:36.205Z,3.30
2023-04-28T00:39:04.034Z,3.30
2023-04-28T00:41:31.880Z,3.30
2023-04-28T00:43:59.718Z,3.20
2023-04-28T00:46:29.104Z,3.20
2023-04-28T00:48:58.615Z,3.20
2023-04-28T00:51:27.651Z,3.20
2023-04-28T00:53:55.790Z,3.10
2023-04-28T00:56:23.685Z,3.10
2023-04-28T00:58:51.583Z,3.00
2023-04-28T01:01:19.486Z,3.00
2023-04-28T01:03:48.358Z,3.00
2023-04-28T01:06:18.295Z,2.90
2023-04-28T01:08:49.237Z,3.00
2023-04-28T01:11:17.435Z,2.90
2023-04-28T01:13:45.762Z,2.90
2023-04-28T01:16:13.701Z,2.90
2023-04-28T01:18:43.801Z,2.90
2023-04-28T01:21:11.717Z,2.90
2023-04-28T01:23:41.027Z,2.80
2023-04-28T01:26:10.226Z,2.80
2023-04-28T01:28:38.068Z,2.80
2023-04-28T01:31:05.987Z,2.80
2023-04-28T01:33:33.892Z,2.80
2023-04-28T01:36:01.867Z,2.80
2023-04-28T01:38:29.731Z,2.80
2023-04-28T01:40:58.527Z,2.80
2023-04-28T01:43:27.800Z,2.70
2023-04-28T01:45:55.660Z,2.70
2023-04-28T01:48:23.538Z,2.70
2023-04-28T01:50:51.430Z,2.70
2023-04-28T01:53:20.619Z,2.70
2023-04-28T01:55:48.472Z,2.70
2023-04-28T01:58:16.295Z,2.70
2023-04-28T02:00:45.712Z,2.70
2023-04-28T02:03:13.705Z,2.70
2023-04-28T02:05:41.738Z,2.70
2023-04-28T02:08:09.662Z,2.70
2023-04-28T02:10:37.525Z,2.70
2023-04-28T02:13:05.421Z,2.70
2023-04-28T02:15:33.269Z,2.70
2023-04-28T02:18:02.530Z,2.70
2023-04-28T02:20:31.891Z,2.70
2023-04-28T02:23:01.080Z,2.60
2023-04-28T02:25:28.977Z,2.60
2023-04-28T02:27:57.358Z,2.60
2023-04-28T02:30:25.191Z,2.50
2023-04-28T02:32:53.159Z,2.50
2023-04-28T02:35:22.437Z,2.50
2023-04-28T02:37:50.405Z,2.50
2023-04-28T02:40:18.402Z,2.50
2023-04-28T02:42:46.263Z,2.40
2023-04-28T02:45:14.152Z,2.40
2023-04-28T02:47:42.072Z,2.40
2023-04-28T02:50:10.422Z,2.40
2023-04-28T02:52:39.642Z,2.40
2023-04-28T02:55:07.966Z,2.40
2023-04-28T02:57:35.789Z,2.40
2023-04-28T03:00:03.637Z,2.40
2023-04-28T03:02:31.732Z,2.40
2023-04-28T03:04:59.640Z,2.40
2023-04-28T03:07:27.499Z,2.40
2023-04-28T03:09:56.761Z,2.40
2023-04-28T03:12:24.567Z,2.30
2023-04-28T03:14:52.462Z,2.40
2023-04-28T03:17:20.719Z,2.40
2023-04-28T03:19:48.619Z,2.30
2023-04-28T03:22:16.454Z,2.30
2023-04-28T03:24:44.308Z,2.20
2023-04-28T03:27:13.664Z,2.20
2023-04-28T03:29:41.542Z,2.20
2023-04-28T03:32:09.497Z,2.20
2023-04-28T03:34:37.689Z,2.10
2023-04-28T03:37:05.775Z,2.20
2023-04-28T03:39:33.743Z,2.20
2023-04-28T03:42:01.627Z,2.20
2023-04-28T03:44:31.369Z,2.10
2023-04-28T03:46:59.258Z,2.10
2023-04-28T03:49:27.136Z,2.10
2023-04-28T03:51:54.986Z,2.10
2023-04-28T03:54:22.839Z,2.10
2023-04-28T03:56:50.750Z,2.10
2023-04-28T03:59:18.649Z,2.10
2023-04-28T04:01:47.886Z,2.10
2023-04-28T04:04:16.205Z,2.20
2023-04-28T04:06:44.532Z,2.20
2023-04-28T04:09:12.441Z,2.20
2023-04-28T04:11:40.271Z,2.30
2023-04-28T04:14:08.141Z,2.30
2023-04-28T04:16:36.684Z,2.30
2023-04-28T04:19:05.908Z,2.30
2023-04-28T04:21:33.765Z,2.40
2023-04-28T04:24:01.701Z,2.40
2023-04-28T04:26:29.541Z,2.50
2023-04-28T04:28:57.413Z,2.50
2023-04-28T04:31:25.617Z,2.60
2023-04-28T04:33:53.550Z,2.60
2023-04-28T04:36:23.029Z,2.70
2023-04-28T04:38:52.506Z,2.80
2023-04-28T04:41:22.703Z,2.90
2023-04-28T04:43:50.668Z,2.90
2023-04-28T04:46:18.573Z,3.00
2023-04-28T04:48:46.515Z,3.00
2023-04-28T04:51:14.442Z,3.10
2023-04-28T04:53:43.663Z,3.20
2023-04-28T04:56:11.544Z,3.20
2023-04-28T04:58:39.371Z,3.30
2023-04-28T05:01:07.264Z,3.40
2023-04-28T05:03:35.208Z,3.40
2023-04-28T05:06:03.793Z,3.50
2023-04-28T05:08:31.648Z,3.60
2023-04-28T05:11:00.878Z,3.70
2023-04-28T05:13:28.724Z,3.80
2023-04-28T05:15:56.569Z,3.90
2023-04-28T05:18:24.444Z,3.90
2023-04-28T05:20:52.284Z,4.00
2023-04-28T05:23:20.256Z,4.10
2023-04-28T05:25:48.113Z,4.20
2023-04-28T05:28:17.348Z,4.20
2023-04-28T05:30:45.721Z,4.30
2023-04-28T05:33:13.910Z,4.40
2023-04-28T05:35:41.819Z,4.40
2023-04-28T05:38:09.678Z,4.50
2023-04-28T05:40:37.554Z,4.60
2023-04-28T05:43:05.405Z,4.60
2023-04-28T05:45:35.080Z,4.70
2023-04-28T05:48:05.109Z,4.80
2023-04-28T05:50:33.266Z,4.80
2023-04-28T05:53:01.126Z,4.90
2023-04-28T05:55:29.133Z,4.90
2023-04-28T05:57:57.152Z,4.90
2023-04-28T06:00:25.117Z,5.00
2023-04-28T06:02:54.455Z,5.10
2023-04-28T06:05:22.811Z,5.20
2023-04-28T06:07:51.970Z,5.20
2023-04-28T06:10:22.982Z,5.40
2023-04-28T06:12:50.863Z,5.50
2023-04-28T06:15:18.768Z,5.70
2023-04-28T06:17:46.847Z,5.90
2023-04-28T06:20:16.621Z,6.10
2023-04-28T06:22:44.506Z,6.30
2023-04-28T06:25:12.396Z,6.50
2023-04-28T06:27:40.479Z,6.70
2023-04-28T06:30:08.950Z,6.90
2023-04-28T06:32:36.868Z,7.10
2023-04-28T06:35:04.992Z,7.30
2023-04-28T06:37:34.221Z,7.40
2023-04-28T06:40:02.085Z,7.60
2023-04-28T06:42:29.960Z,7.80
2023-04-28T06:44:57.799Z,8.00
2023-04-28T06:47:25.737Z,8.20
2023-04-28T06:49:53.995Z,8.30
2023-04-28T06:52:24.890Z,8.60
2023-04-28T06:55:02.286Z,8.80
2023-04-28T06:57:30.155Z,9.00
2023-04-28T06:59:58.026Z,9.20
2023-04-28T07:02:26.401Z,9.20
2023-04-28T07:04:55.353Z,9.30
2023-04-28T07:07:23.210Z,9.40
2023-04-28T07:09:53.210Z,9.70
2023-04-28T07:12:22.513Z,9.80
2023-04-28T07:14:50.654Z,9.90
2023-04-28T07:17:18.512Z,10.10
2023-04-28T07:19:46.339Z,10.30
2023-04-28T07:22:14.209Z,10.50
2023-04-28T07:24:42.079Z,10.80
2023-04-28T07:27:09.958Z,11.00
2023-04-28T07:29:39.223Z,11.30
2023-04-28T07:32:08.666Z,11.50
2023-04-28T07:34:36.701Z,11.80
2023-04-28T07:37:05.029Z,11.90
2023-04-28T07:39:33.976Z,12.10
2023-04-28T07:42:02.808Z,12.30
2023-04-28T07:44:31.003Z,12.50
2023-04-28T07:47:00.757Z,12.60
2023-04-28T07:49:29.330Z,12.90
2023-04-28T07:51:57.295Z,13.30
2023-04-28T07:54:26.165Z,13.50
2023-04-28T07:56:54.058Z,13.70
2023-04-28T07:59:21.937Z,13.80
2023-04-28T08:01:49.851Z,14.00
2023-04-28T08:04:19.482Z,14.20
2023-04-28T08:06:47.743Z,14.30
2023-04-28T08:09:15.648Z,14.40
2023-04-28T08:11:43.559Z,14.70
2023-04-28T08:14:11.401Z,14.90
2023-04-28T08:16:41.400Z,15.00
2023-04-28T08:19:09.444Z,15.10
2023-04-28T08:21:38.674Z,15.10
2023-04-28T08:24:08.095Z,15.10
2023-04-28T08:26:36.027Z,15.40
2023-04-28T08:29:03.943Z,15.70
2023-04-28T08:31:32.035Z,15.90
2023-04-28T08:33:59.946Z,16.00
2023-04-28T08:36:31.807Z,15.90
2023-04-28T08:39:01.856Z,15.90
2023-04-28T08:41:33.301Z,15.90
2023-04-28T08:44:01.229Z,15.90
2023-04-28T08:46:29.295Z,16.10
2023-04-28T08:49:00.638Z,16.30
2023-04-28T08:51:34.080Z,16.60
2023-04-28T08:54:22.888Z,16.80
2023-04-28T08:56:53.258Z,16.80
2023-04-28T08:59:21.931Z,16.80
2023-04-28T09:01:50.078Z,16.70
2023-04-28T09:04:18.995Z,16.70
2023-04-28T09:06:47.558Z,16.60
2023-04-28T09:09:25.104Z,16.60
2023-04-28T09:11:54.000Z,16.70
2023-04-28T09:14:21.977Z,16.70
2023-04-28T09:16:50.210Z,16.80
2023-04-28T09:19:18.287Z,16.90
2023-04-28T09:21:50.469Z,16.90
2023-04-28T09:24:29.583Z,17.30
2023-04-28T09:26:57.485Z,17.80
2023-04-28T09:29:25.380Z,17.90
2023-04-28T09:31:54.313Z,18.20
2023-04-28T09:34:22.771Z,18.70
2023-04-28T09:36:50.736Z,18.90
2023-04-28T09:39:31.290Z,19.00
2023-04-28T09:42:03.405Z,19.20
2023-04-28T09:44:31.371Z,19.40
2023-04-28T09:46:59.262Z,19.80
2023-04-28T09:49:27.161Z,20.10
2023-04-28T09:51:55.250Z,20.50
2023-04-28T09:54:23.865Z,21.00
2023-04-28T09:56:55.686Z,21.10
2023-04-28T09:59:23.664Z,21.10
2023-04-28T10:01:51.595Z,21.00
2023-04-28T10:04:19.862Z,21.10
2023-04-28T10:06:48.056Z,21.00
2023-04-28T10:09:17.590Z,21.00
2023-04-28T10:11:46.111Z,20.80
2023-04-28T10:14:15.573Z,20.40
2023-04-28T10:16:43.648Z,20.20
2023-04-28T10:19:12.089Z,19.90
2023-04-28T10:21:43.188Z,19.90
2023-04-28T10:24:16.207Z,19.90
2023-04-28T10:27:03.094Z,19.90
2023-04-28T10:29:33.415Z,20.00
2023-04-28T10:32:17.486Z,19.90
2023-04-28T10:34:45.669Z,19.80
2023-04-28T10:37:15.236Z,19.80
2023-04-28T10:40:03.201Z,19.80
2023-04-28T10:42:51.944Z,19.70
2023-04-28T10:48:17.754Z,19.30
2023-04-28T10:51:18.330Z,19.00
2023-04-28T10:54:05.164Z,18.70
2023-04-28T10:56:32.993Z,18.30
2023-04-28T10:59:01.394Z,17.80
2023-04-28T11:01:30.903Z,17.60
2023-04-28T11:04:03.790Z,17.50
2023-04-28T11:06:34.435Z,17.40
2023-04-28T11:09:03.052Z,17.30
2023-04-28T11:11:32.677Z,17.10
2023-04-28T11:14:15.395Z,17.10
2023-04-28T11:16:49.541Z,17.00
2023-04-28T11:19:19.555Z,16.80
2023-04-28T11:21:48.176Z,16.80
2023-04-28T11:24:17.186Z,16.70
2023-04-28T11:26:45.389Z,16.50
2023-04-28T11:29:14.926Z,16.40
2023-04-28T11:31:50.187Z,16.40
2023-04-28T11:34:21.728Z,16.30
2023-04-28T11:36:49.615Z,16.10
2023-04-28T11:39:17.602Z,16.10
2023-04-28T11:41:46.183Z,16.00
2023-04-28T11:44:14.783Z,15.90
2023-04-28T11:46:46.321Z,15.80
2023-04-28T11:49:15.047Z,15.60
2023-04-28T11:51:45.955Z,15.60
2023-04-28T11:54:15.007Z,15.60
2023-04-28T11:56:44.830Z,15.50
2023-04-28T11:59:13.449Z,15.40
2023-04-28T12:01:48.583Z,15.30
2023-04-28T12:04:27.347Z,15.30
2023-04-28T12:07:06.949Z,15.30
2023-04-28T12:09:36.613Z,15.30
2023-04-28T12:12:05.128Z,15.20
2023-04-28T12:14:35.580Z,15.20
2023-04-28T12:17:04.062Z,15.10
2023-04-28T12:19:44.146Z,15.00
2023-04-28T12:22:17.573Z,15.00
2023-04-28T12:24:46.154Z,14.90
2023-04-28T12:27:22.088Z,14.90
2023-04-28T12:29:50.743Z,14.80
2023-04-28T12:32:20.174Z,14.70
2023-04-28T12:34:48.217Z,14.70
2023-04-28T12:37:17.552Z,14.70
2023-04-28T12:39:45.958Z,14.60
2023-04-28T12:42:14.030Z,14.60
2023-04-28T12:44:41.972Z,14.50
2023-04-28T12:47:11.185Z,14.40
2023-04-28T12:49:39.370Z,14.40
2023-04-28T12:52:07.777Z,14.30
2023-04-28T12:54:37.129Z,14.20
2023-04-28T12:57:05.504Z,14.10
2023-04-28T12:59:33.484Z,14.10
2023-04-28T13:02:01.388Z,14.00
2023-04-28T13:04:30.007Z,13.90
2023-04-28T13:06:58.489Z,13.80
2023-04-28T13:09:26.718Z,13.70
2023-04-28T13:11:56.033Z,13.60
2023-04-28T13:14:24.056Z,13.50
2023-04-28T13:16:53.201Z,13.40
2023-04-28T13:19:21.136Z,13.30
2023-04-28T13:21:49.004Z,13.20
2023-04-28T13:24:16.952Z,13.10
2023-04-28T13:26:45.289Z,13.00
2023-04-28T13:29:15.353Z,12.90
2023-04-28T13:31:43.266Z,12.80
2023-04-28T13:34:15.980Z,12.80
2023-04-28T13:36:44.503Z,12.60
2023-04-28T13:39:14.588Z,12.60
2023-04-28T13:41:42.872Z,12.60
2023-04-28T13:44:10.783Z,12.70
2023-04-28T13:46:40.100Z,12.70
2023-04-28T13:49:07.965Z,12.70
2023-04-28T13:51:35.906Z,12.70
2023-04-28T13:54:04.717Z,12.60
2023-04-28T13:56:32.888Z,12.50
2023-04-28T13:59:01.049Z,12.50
2023-04-28T14:01:29.100Z,12.50
2023-04-28T14:03:58.640Z,12.50
2023-04-28T14:06:27.976Z,12.50
2023-04-28T14:08:55.836Z,12.50
2023-04-28T14:11:23.773Z,12.50
2023-04-28T14:13:51.719Z,12.50
2023-04-28T14:16:19.970Z,12.40
2023-04-28T14:18:47.895Z,12.50
2023-04-28T14:21:17.067Z,12.40
2023-04-28T14:23:44.940Z,12.40
2023-04-28T14:26:12.923Z,12.50
2023-04-28T14:28:40.852Z,12.50
2023-04-28T14:31:09.225Z,12.50
2023-04-28T14:33:37.761Z,12.60
2023-04-28T14:36:06.077Z,12.60
2023-04-28T14:38:35.770Z,12.60
2023-04-28T14:41:04.491Z,12.60
2023-04-28T14:43:32.332Z,12.60
2023-04-28T14:46:00.338Z,12.60
2023-04-28T14:48:28.296Z,12.60
2023-04-28T14:50:56.143Z,12.50
2023-04-28T14:53:24.776Z,12.50
2023-04-28T14:55:55.999Z,12.50
2023-04-28T14:58:25.792Z,12.40
2023-04-28T15:00:54.042Z,12.30
2023-04-28T15:03:22.071Z,12.30
2023-04-28T15:05:50.114Z,12.20
2023-04-28T15:08:17.978Z,12.10
2023-04-28T15:10:46.007Z,12.10
2023-04-28T15:13:15.223Z,12.10
2023-04-28T15:15:43.141Z,12.10
2023-04-28T15:18:11.136Z,12.10
2023-04-28T15:20:39.370Z,12.00
2023-04-28T15:23:07.229Z,12.10
2023-04-28T15:25:35.301Z,12.00
2023-04-28T15:28:07.044Z,12.00
2023-04-28T15:30:36.583Z,12.00
2023-04-28T15:33:04.570Z,12.00
2023-04-28T15:35:33.406Z,11.90
2023-04-28T15:38:01.926Z,11.90
2023-04-28T15:40:29.804Z,11.90
2023-04-28T15:42:57.971Z,11.90
2023-04-28T15:45:25.919Z,11.90
2023-04-28T15:47:55.740Z,11.90
2023-04-28T15:50:24.123Z,11.90
2023-04-28T15:52:52.310Z,11.90
2023-04-28T15:55:21.640Z,11.90
2023-04-28T15:57:49.633Z,12.00
2023-04-28T16:00:17.568Z,12.00
2023-04-28T16:02:46.095Z,12.00
2023-04-28T16:05:15.583Z,11.90
2023-04-28T16:07:44.284Z,12.00
2023-04-28T16:10:13.222Z,12.00
2023-04-28T16:12:41.840Z,12.00
2023-04-28T16:15:10.954Z,12.00
2023-04-28T16:17:39.042Z,12.00
2023-04-28T16:20:07.640Z,12.00
2023-04-28T16:22:37.632Z,12.00
2023-04-28T16:25:06.321Z,12.00
2023-04-28T16:27:34.552Z,12.00
2023-04-28T16:30:02.391Z,12.00
2023-04-28T16:32:30.595Z,11.90
2023-04-28T16:34:58.732Z,11.90
2023-04-28T16:37:26.895Z,11.90
2023-04-28T16:39:56.672Z,11.90
2023-04-28T16:42:24.621Z,11.90
2023-04-28T16:44:53.056Z,11.80
2023-04-28T16:47:21.327Z,11.80
2023-04-28T16:49:49.453Z,11.70
2023-04-28T16:52:17.822Z,11.70
2023-04-28T16:54:45.753Z,11.70
2023-04-28T16:57:15.219Z,11.70
2023-04-28T16:59:43.096Z,11.70
2023-04-28T17:02:11.011Z,11.60
2023-04-28T17:04:39.027Z,11.60
2023-04-28T17:07:07.348Z,11.60
2023-04-28T17:09:35.211Z,11.50
2023-04-28T17:12:03.891Z,11.50
2023-04-28T17:14:33.175Z,11.50
2023-04-28T17:17:01.028Z,11.40
2023-04-28T17:19:28.969Z,11.40
2023-04-28T17:21:56.891Z,11.40
2023-04-28T17:24:24.716Z,11.30
2023-04-28T17:26:52.615Z,11.30
2023-04-28T17:29:22.096Z,11.30
2023-04-28T17:31:51.941Z,11.30
2023-04-28T17:34:20.060Z,11.20
2023-04-28T17:36:47.920Z,11.20
2023-04-28T17:39:16.686Z,11.20
2023-04-28T17:41:45.079Z,11.10
2023-04-28T17:44:13.177Z,11.10
2023-04-28T17:46:41.226Z,11.00
2023-04-28T17:49:10.970Z,11.00
2023-04-28T17:51:38.843Z,11.00
2023-04-28T17:54:09.574Z,11.00
2023-04-28T17:56:37.874Z,10.90
2023-04-28T17:59:08.176Z,10.90
2023-04-28T18:01:36.255Z,10.90
2023-04-28T18:04:04.194Z,10.90
2023-04-28T18:06:33.411Z,10.90
2023-04-28T18:09:01.317Z,10.90
2023-04-28T18:11:29.211Z,10.90
2023-04-28T18:13:58.693Z,10.80
2023-04-28T18:16:26.973Z,10.80
2023-04-28T18:18:54.874Z,10.80
2023-04-28T18:21:22.731Z,10.80
2023-04-28T18:23:51.949Z,10.80
2023-04-28T18:26:20.943Z,10.80
2023-04-28T18:28:49.042Z,10.80
2023-04-28T18:31:17.053Z,10.70
2023-04-28T18:33:45.102Z,10.70
2023-04-28T18:36:13.029Z,10.70
2023-04-28T18:38:41.287Z,10.70
2023-04-28T18:41:16.994Z,10.70
2023-04-28T18:43:44.926Z,10.60
2023-04-28T18:46:12.878Z,10.60
2023-04-28T18:48:41.160Z,10.60
2023-04-28T18:51:08.995Z,10.60
2023-04-28T18:53:37.123Z,10.60
2023-04-28T18:56:05.145Z,10.60
2023-04-28T18:58:37.045Z,10.60
2023-04-28T19:01:05.024Z,10.50
2023-04-28T19:03:33.404Z,10.50
2023-04-28T19:06:01.449Z,10.50
2023-04-28T19:08:29.351Z,10.50
2023-04-28T19:10:58.442Z,10.50
2023-04-28T19:13:26.404Z,10.50
2023-04-28T19:15:56.249Z,10.50
2023-04-28T19:18:24.121Z,10.50
2023-04-28T19:20:59.165Z,10.50
2023-04-28T19:23:27.040Z,10.40
2023-04-28T19:25:56.301Z,10.40
2023-04-28T19:28:25.923Z,10.40
2023-04-28T19:30:55.738Z,10.40
2023-04-28T19:33:26.197Z,10.30
2023-04-28T19:35:55.775Z,10.30
2023-04-28T19:38:23.904Z,10.30
2023-04-28T19:40:52.126Z,10.30
2023-04-28T19:43:19.948Z,10.30
2023-04-28T19:45:47.853Z,10.30
2023-04-28T19:48:18.458Z,10.30
2023-04-28T19:50:46.637Z,10.30
2023-04-28T19:53:14.981Z,10.30
2023-04-28T19:55:42.934Z,10.30
2023-04-28T19:58:11.219Z,10.30
2023-04-28T20:00:39.108Z,10.20
2023-04-28T20:03:07.080Z,10.20
2023-04-28T20:05:38.176Z,10.30
2023-04-28T20:08:06.120Z,10.20
2023-04-28T20:10:34.003Z,10.20
2023-04-28T20:13:02.535Z,10.20
2023-04-28T20:15:30.629Z,10.20
2023-04-28T20:17:58.478Z,10.20
2023-04-28T20:20:26.631Z,10.20
2023-04-28T20:22:55.836Z,10.20
2023-04-28T20:25:23.795Z,10.20
2023-04-28T20:27:51.641Z,10.20
2023-04-28T20:30:19.494Z,10.20
2023-04-28T20:32:48.645Z,10.20
2023-04-28T20:35:17.520Z,10.20
2023-04-28T20:37:45.374Z,10.20
2023-04-28T20:40:15.355Z,10.20
2023-04-28T20:42:43.189Z,10.20
2023-04-28T20:45:11.483Z,10.20
2023-04-28T20:47:39.337Z,10.20
2023-04-28T20:50:10.812Z,10.20
2023-04-28T20:52:39.011Z,10.20
2023-04-28T20:55:07.290Z,10.20
2023-04-28T20:57:36.513Z,10.20
2023-04-28T21:00:05.212Z,10.20
2023-04-28T21:02:33.193Z,10.20
2023-04-28T21:05:01.725Z,10.20
2023-04-28T21:07:29.556Z,10.20
2023-04-28T21:09:58.053Z,10.20
2023-04-28T21:12:25.927Z,10.20
2023-04-28T21:14:55.135Z,10.10
2023-04-28T21:17:23.071Z,10.10
2023-04-28T21:19:51.455Z,10.20
2023-04-28T21:22:19.596Z,10.20
2023-04-28T21:24:47.548Z,10.10
2023-04-28T21:27:15.369Z,10.20
2023-04-28T21:29:43.217Z,10.10
2023-04-28T21:32:13.161Z,10.10
2023-04-28T21:34:41.005Z,10.10
2023-04-28T21:37:08.859Z,10.10
2023-04-28T21:39:36.880Z,10.10
2023-04-28T21:42:05.811Z,10.10
2023-04-28T21:44:33.665Z,10.10
2023-04-28T21:47:01.526Z,10.10
2023-04-28T21:49:30.722Z,10.10
2023-04-28T21:51:58.630Z,10.10
2023-04-28T21:54:26.456Z,10.10
2023-04-28T21:56:54.284Z,10.10
2023-04-28T21:59:22.152Z,10.10
2023-04-28T22:01:50.634Z,10.10
2023-04-28T22:04:18.778Z,10.10
2023-04-28T22:06:48.145Z,10.10
2023-04-28T22:09:16.027Z,10.10
2023-04-28T22:11:43.867Z,10.10
2023-04-28T22:14:15.251Z,10.10
2023-04-28T22:16:49.717Z,10.10
2023-04-28T22:19:17.968Z,10.10
2023-04-28T22:21:45.866Z,10.10
2023-04-28T22:24:16.632Z,10.10
2023-04-28T22:26:46.126Z,10.10
2023-04-28T22:29:13.962Z,10.10
2023-04-28T22:31:41.817Z,10.10
2023-04-28T22:34:10.387Z,10.10
2023-04-28T22:36:38.306Z,10.10
2023-04-28T22:39:06.378Z,10.10
2023-04-28T22:41:35.658Z,10.10
2023-04-28T22:44:03.490Z,10.10
2023-04-28T22:46:31.374Z,10.10
2023-04-28T22:48:59.262Z,10.10
2023-04-28T22:51:27.109Z,10.10
2023-04-28T22:53:55.561Z,10.10
2023-04-28T22:56:23.394Z,10.10
2023-04-28T22:58:52.596Z,10.00
2023-04-28T23:01:20.534Z,10.00
2023-04-28T23:03:50.649Z,10.00
2023-04-28T23:06:18.660Z,10.00
2023-04-28T23:08:46.539Z,10.00
2023-04-28T23:11:14.612Z,10.00
2023-04-28T23:13:42.483Z,10.00
2023-04-28T23:16:11.743Z,10.00
2023-04-28T23:18:39.700Z,10.00
2023-04-28T23:21:08.041Z,10.00
2023-04-28T23:23:36.144Z,10.00
2023-04-28T23:26:05.332Z,10.00
2023-04-28T23:28:33.240Z,10.10
2023-04-28T23:31:01.121Z,10.00
2023-04-28T23:33:30.577Z,10.00
2023-04-28T23:35:58.453Z,10.00
2023-04-28T23:38:26.611Z,10.10
2023-04-28T23:40:54.745Z,10.10
2023-04-28T23:43:22.583Z,10.10
2023-04-28T23:45:50.464Z,10.00
2023-04-28T23:48:18.516Z,10.10
2023-04-28T23:50:48.081Z,10.10
2023-04-28T23:53:15.939Z,10.10
2023-04-28T23:55:43.772Z,10.10
2023-04-28T23:58:11.659Z,10.10
